sensor_id;sensor_type;location;lat;lon;timestamp;P1;durP1;ratioP1;P2;durP2;ratioP2
80647;SDS011;70012;0.000;0.000;2023-08-20T00:01:08;9.90;;;6.10;;
80647;SDS011;70012;0.000;0.000;2023-08-20T00:03:39;11.00;;;5.45;;
80647;SDS011;70012;0.000;0.000;2023-08-20T00:06:07;7.68;;;5.53;;
80647;SDS011;70012;0.000;0.000;2023-08-20T00:08:34;10.50;;;6.07;;
80647;SDS011;70012;0.000;0.000;2023-08-20T00:11:01;7.97;;;6.28;;
80647;SDS011;70012;0.000;0.000;2023-08-20T00:13:29;8.90;;;6.40;;
80647;SDS011;70012;0.000;0.000;2023-08-20T00:15:55;7.68;;;5.65;;
80647;SDS011;70012;0.000;0.000;2023-08-20T00:18:22;9.13;;;6.13;;
80647;SDS011;70012;0.000;0.000;2023-08-20T00:20:49;9.35;;;6.80;;
80647;SDS011;70012;0.000;0.000;2023-08-20T00:23:17;7.38;;;6.30;;
80647;SDS011;70012;0.000;0.000;2023-08-20T00:25:44;9.68;;;5.97;;
80647;SDS011;70012;0.000;0.000;2023-08-20T00:28:11;8.38;;;6.32;;
80647;SDS011;70012;0.000;0.000;2023-08-20T00:30:37;11.63;;;6.15;;
80647;SDS011;70012;0.000;0.000;2023-08-20T00:33:04;8.18;;;6.72;;
80647;SDS011;70012;0.000;0.000;2023-08-20T00:35:31;13.45;;;6.85;;
80647;SDS011;70012;0.000;0.000;2023-08-20T00:37:58;9.82;;;6.85;;
80647;SDS011;70012;0.000;0.000;2023-08-20T00:40:25;11.20;;;7.63;;
80647;SDS011;70012;0.000;0.000;2023-08-20T00:42:52;11.48;;;6.72;;
80647;SDS011;70012;0.000;0.000;2023-08-20T00:45:19;10.23;;;7.32;;
80647;SDS011;70012;0.000;0.000;2023-08-20T00:47:46;10.82;;;8.48;;
80647;SDS011;70012;0.000;0.000;2023-08-20T00:50:13;11.77;;;8.27;;
80647;SDS011;70012;0.000;0.000;2023-08-20T00:52:40;10.05;;;7.90;;
80647;SDS011;70012;0.000;0.000;2023-08-20T00:55:08;11.27;;;7.43;;
80647;SDS011;70012;0.000;0.000;2023-08-20T00:57:36;11.48;;;7.85;;
80647;SDS011;70012;0.000;0.000;2023-08-20T01:00:04;12.43;;;9.20;;
80647;SDS011;70012;0.000;0.000;2023-08-20T01:02:33;13.43;;;7.95;;
80647;SDS011;70012;0.000;0.000;2023-08-20T01:05:01;11.23;;;8.43;;
80647;SDS011;70012;0.000;0.000;2023-08-20T01:13:10;11.95;;;9.48;;
80647;SDS011;70012;0.000;0.000;2023-08-20T01:15:37;13.45;;;10.35;;
80647;SDS011;70012;0.000;0.000;2023-08-20T01:18:04;14.30;;;9.45;;
80647;SDS011;70012;0.000;0.000;2023-08-20T01:20:33;13.75;;;9.90;;
80647;SDS011;70012;0.000;0.000;2023-08-20T01:28:59;12.73;;;7.75;;
80647;SDS011;70012;0.000;0.000;2023-08-20T01:31:46;10.18;;;8.40;;
80647;SDS011;70012;0.000;0.000;2023-08-20T01:34:14;12.02;;;6.88;;
80647;SDS011;70012;0.000;0.000;2023-08-20T01:36:41;8.52;;;6.72;;
80647;SDS011;70012;0.000;0.000;2023-08-20T01:39:08;9.38;;;7.22;;
80647;SDS011;70012;0.000;0.000;2023-08-20T01:41:34;11.13;;;7.43;;
80647;SDS011;70012;0.000;0.000;2023-08-20T01:44:01;10.02;;;7.25;;
80647;SDS011;70012;0.000;0.000;2023-08-20T01:46:28;9.70;;;6.97;;
80647;SDS011;70012;0.000;0.000;2023-08-20T01:48:55;11.10;;;7.85;;
80647;SDS011;70012;0.000;0.000;2023-08-20T01:51:22;11.55;;;8.38;;
80647;SDS011;70012;0.000;0.000;2023-08-20T01:53:49;12.32;;;8.10;;
80647;SDS011;70012;0.000;0.000;2023-08-20T01:56:16;10.68;;;8.23;;
80647;SDS011;70012;0.000;0.000;2023-08-20T01:58:43;10.38;;;7.68;;
80647;SDS011;70012;0.000;0.000;2023-08-20T02:01:10;13.68;;;8.05;;
80647;SDS011;70012;0.000;0.000;2023-08-20T02:03:37;11.57;;;8.25;;
80647;SDS011;70012;0.000;0.000;2023-08-20T02:06:04;10.98;;;7.97;;
80647;SDS011;70012;0.000;0.000;2023-08-20T02:08:31;10.55;;;7.82;;
80647;SDS011;70012;0.000;0.000;2023-08-20T02:11:02;11.02;;;8.23;;
80647;SDS011;70012;0.000;0.000;2023-08-20T02:13:30;11.88;;;8.68;;
80647;SDS011;70012;0.000;0.000;2023-08-20T02:16:02;11.00;;;7.20;;
80647;SDS011;70012;0.000;0.000;2023-08-20T02:18:30;9.90;;;7.65;;
80647;SDS011;70012;0.000;0.000;2023-08-20T02:20:57;11.90;;;7.80;;
80647;SDS011;70012;0.000;0.000;2023-08-20T02:23:24;9.95;;;7.60;;
80647;SDS011;70012;0.000;0.000;2023-08-20T02:25:52;11.70;;;7.40;;
80647;SDS011;70012;0.000;0.000;2023-08-20T02:28:19;9.77;;;7.18;;
80647;SDS011;70012;0.000;0.000;2023-08-20T02:30:46;8.55;;;7.40;;
80647;SDS011;70012;0.000;0.000;2023-08-20T02:33:13;10.65;;;6.85;;
80647;SDS011;70012;0.000;0.000;2023-08-20T02:35:40;9.77;;;7.35;;
80647;SDS011;70012;0.000;0.000;2023-08-20T02:38:07;11.70;;;7.80;;
80647;SDS011;70012;0.000;0.000;2023-08-20T02:40:42;9.25;;;7.00;;
80647;SDS011;70012;0.000;0.000;2023-08-20T02:43:09;10.05;;;7.93;;
80647;SDS011;70012;0.000;0.000;2023-08-20T02:45:39;8.95;;;7.03;;
80647;SDS011;70012;0.000;0.000;2023-08-20T02:48:08;9.40;;;7.22;;
80647;SDS011;70012;0.000;0.000;2023-08-20T02:50:36;10.57;;;7.55;;
80647;SDS011;70012;0.000;0.000;2023-08-20T02:53:03;10.38;;;7.30;;
80647;SDS011;70012;0.000;0.000;2023-08-20T02:55:30;11.43;;;7.85;;
80647;SDS011;70012;0.000;0.000;2023-08-20T02:57:58;12.40;;;8.65;;
80647;SDS011;70012;0.000;0.000;2023-08-20T03:00:25;11.35;;;6.85;;
80647;SDS011;70012;0.000;0.000;2023-08-20T03:02:53;9.43;;;7.18;;
80647;SDS011;70012;0.000;0.000;2023-08-20T03:05:20;10.50;;;7.18;;
80647;SDS011;70012;0.000;0.000;2023-08-20T03:07:46;11.93;;;7.75;;
80647;SDS011;70012;0.000;0.000;2023-08-20T03:10:13;10.73;;;7.38;;
80647;SDS011;70012;0.000;0.000;2023-08-20T03:12:40;9.57;;;7.30;;
80647;SDS011;70012;0.000;0.000;2023-08-20T03:15:07;9.68;;;7.07;;
80647;SDS011;70012;0.000;0.000;2023-08-20T03:17:34;9.20;;;6.35;;
80647;SDS011;70012;0.000;0.000;2023-08-20T03:20:02;11.35;;;6.78;;
80647;SDS011;70012;0.000;0.000;2023-08-20T03:22:32;8.05;;;6.43;;
80647;SDS011;70012;0.000;0.000;2023-08-20T03:24:59;9.77;;;6.75;;
80647;SDS011;70012;0.000;0.000;2023-08-20T03:27:26;12.90;;;6.95;;
80647;SDS011;70012;0.000;0.000;2023-08-20T03:29:53;13.68;;;6.63;;
80647;SDS011;70012;0.000;0.000;2023-08-20T03:32:20;9.07;;;6.70;;
80647;SDS011;70012;0.000;0.000;2023-08-20T03:34:46;9.55;;;7.25;;
80647;SDS011;70012;0.000;0.000;2023-08-20T03:37:13;8.65;;;6.53;;
80647;SDS011;70012;0.000;0.000;2023-08-20T03:39:41;9.18;;;7.38;;
80647;SDS011;70012;0.000;0.000;2023-08-20T03:42:08;10.40;;;7.03;;
80647;SDS011;70012;0.000;0.000;2023-08-20T03:44:35;11.63;;;7.50;;
80647;SDS011;70012;0.000;0.000;2023-08-20T03:47:02;8.55;;;6.60;;
80647;SDS011;70012;0.000;0.000;2023-08-20T03:49:28;10.07;;;6.85;;
80647;SDS011;70012;0.000;0.000;2023-08-20T03:51:55;9.05;;;6.72;;
80647;SDS011;70012;0.000;0.000;2023-08-20T03:54:22;10.30;;;6.93;;
80647;SDS011;70012;0.000;0.000;2023-08-20T03:56:48;11.57;;;7.22;;
80647;SDS011;70012;0.000;0.000;2023-08-20T03:59:16;7.75;;;6.40;;
80647;SDS011;70012;0.000;0.000;2023-08-20T04:01:42;10.25;;;6.93;;
80647;SDS011;70012;0.000;0.000;2023-08-20T04:04:09;9.35;;;6.50;;
80647;SDS011;70012;0.000;0.000;2023-08-20T04:06:36;9.85;;;6.88;;
80647;SDS011;70012;0.000;0.000;2023-08-20T04:09:05;9.05;;;6.93;;
80647;SDS011;70012;0.000;0.000;2023-08-20T04:11:33;11.00;;;6.57;;
80647;SDS011;70012;0.000;0.000;2023-08-20T04:14:00;10.27;;;6.65;;
80647;SDS011;70012;0.000;0.000;2023-08-20T04:16:27;9.40;;;7.38;;
80647;SDS011;70012;0.000;0.000;2023-08-20T04:18:55;8.73;;;6.63;;
80647;SDS011;70012;0.000;0.000;2023-08-20T04:21:24;10.48;;;7.45;;
80647;SDS011;70012;0.000;0.000;2023-08-20T04:23:51;12.48;;;7.07;;
80647;SDS011;70012;0.000;0.000;2023-08-20T04:26:17;8.63;;;6.65;;
80647;SDS011;70012;0.000;0.000;2023-08-20T04:28:45;11.75;;;6.80;;
80647;SDS011;70012;0.000;0.000;2023-08-20T04:31:12;8.73;;;5.55;;
80647;SDS011;70012;0.000;0.000;2023-08-20T04:33:39;10.10;;;6.80;;
80647;SDS011;70012;0.000;0.000;2023-08-20T04:36:05;9.07;;;6.60;;
80647;SDS011;70012;0.000;0.000;2023-08-20T04:38:32;11.35;;;7.47;;
80647;SDS011;70012;0.000;0.000;2023-08-20T04:40:59;10.00;;;6.88;;
80647;SDS011;70012;0.000;0.000;2023-08-20T04:43:26;9.02;;;6.68;;
80647;SDS011;70012;0.000;0.000;2023-08-20T04:45:53;9.73;;;6.55;;
80647;SDS011;70012;0.000;0.000;2023-08-20T04:48:20;10.40;;;7.07;;
80647;SDS011;70012;0.000;0.000;2023-08-20T04:50:47;12.70;;;7.05;;
80647;SDS011;70012;0.000;0.000;2023-08-20T04:53:14;13.98;;;6.93;;
80647;SDS011;70012;0.000;0.000;2023-08-20T04:55:41;11.50;;;7.05;;
80647;SDS011;70012;0.000;0.000;2023-08-20T04:58:08;8.70;;;6.20;;
80647;SDS011;70012;0.000;0.000;2023-08-20T05:00:35;8.98;;;6.63;;
80647;SDS011;70012;0.000;0.000;2023-08-20T05:03:04;12.98;;;6.50;;
80647;SDS011;70012;0.000;0.000;2023-08-20T05:05:31;12.32;;;7.55;;
80647;SDS011;70012;0.000;0.000;2023-08-20T05:07:58;13.40;;;7.68;;
80647;SDS011;70012;0.000;0.000;2023-08-20T05:10:26;11.30;;;7.40;;
80647;SDS011;70012;0.000;0.000;2023-08-20T05:12:54;11.00;;;7.30;;
80647;SDS011;70012;0.000;0.000;2023-08-20T05:15:22;7.97;;;5.97;;
80647;SDS011;70012;0.000;0.000;2023-08-20T05:17:49;12.57;;;7.72;;
80647;SDS011;70012;0.000;0.000;2023-08-20T05:20:16;10.40;;;7.25;;
80647;SDS011;70012;0.000;0.000;2023-08-20T05:22:43;8.77;;;6.53;;
80647;SDS011;70012;0.000;0.000;2023-08-20T05:25:09;11.93;;;7.32;;
80647;SDS011;70012;0.000;0.000;2023-08-20T05:27:36;12.68;;;7.28;;
80647;SDS011;70012;0.000;0.000;2023-08-20T05:30:04;10.40;;;7.40;;
80647;SDS011;70012;0.000;0.000;2023-08-20T05:32:31;10.48;;;7.03;;
80647;SDS011;70012;0.000;0.000;2023-08-20T05:34:58;12.20;;;7.57;;
80647;SDS011;70012;0.000;0.000;2023-08-20T05:37:24;9.98;;;6.22;;
80647;SDS011;70012;0.000;0.000;2023-08-20T05:39:51;13.88;;;7.40;;
80647;SDS011;70012;0.000;0.000;2023-08-20T05:42:18;10.52;;;7.47;;
80647;SDS011;70012;0.000;0.000;2023-08-20T05:44:45;12.80;;;7.28;;
80647;SDS011;70012;0.000;0.000;2023-08-20T05:47:12;12.07;;;8.30;;
80647;SDS011;70012;0.000;0.000;2023-08-20T05:49:41;11.93;;;7.82;;
80647;SDS011;70012;0.000;0.000;2023-08-20T05:52:07;13.45;;;7.72;;
80647;SDS011;70012;0.000;0.000;2023-08-20T05:54:35;11.93;;;7.18;;
80647;SDS011;70012;0.000;0.000;2023-08-20T05:57:02;11.52;;;7.75;;
80647;SDS011;70012;0.000;0.000;2023-08-20T05:59:29;11.65;;;6.90;;
80647;SDS011;70012;0.000;0.000;2023-08-20T06:01:56;14.10;;;8.35;;
80647;SDS011;70012;0.000;0.000;2023-08-20T06:04:22;12.32;;;7.97;;
80647;SDS011;70012;0.000;0.000;2023-08-20T06:06:49;12.95;;;8.07;;
80647;SDS011;70012;0.000;0.000;2023-08-20T06:09:16;14.90;;;7.22;;
80647;SDS011;70012;0.000;0.000;2023-08-20T06:11:44;10.05;;;7.75;;
80647;SDS011;70012;0.000;0.000;2023-08-20T06:14:10;12.88;;;8.35;;
80647;SDS011;70012;0.000;0.000;2023-08-20T06:16:37;13.63;;;8.23;;
80647;SDS011;70012;0.000;0.000;2023-08-20T06:19:04;13.18;;;7.78;;
80647;SDS011;70012;0.000;0.000;2023-08-20T06:21:31;14.73;;;9.00;;
80647;SDS011;70012;0.000;0.000;2023-08-20T06:23:59;15.65;;;8.95;;
80647;SDS011;70012;0.000;0.000;2023-08-20T06:26:26;14.32;;;7.93;;
80647;SDS011;70012;0.000;0.000;2023-08-20T06:28:53;14.27;;;8.48;;
80647;SDS011;70012;0.000;0.000;2023-08-20T06:31:20;18.70;;;9.20;;
80647;SDS011;70012;0.000;0.000;2023-08-20T06:33:47;13.13;;;7.85;;
80647;SDS011;70012;0.000;0.000;2023-08-20T06:36:14;12.38;;;7.60;;
80647;SDS011;70012;0.000;0.000;2023-08-20T06:38:43;13.40;;;7.68;;
80647;SDS011;70012;0.000;0.000;2023-08-20T06:41:10;13.80;;;7.78;;
80647;SDS011;70012;0.000;0.000;2023-08-20T06:43:38;11.00;;;7.97;;
80647;SDS011;70012;0.000;0.000;2023-08-20T06:46:05;11.95;;;7.93;;
80647;SDS011;70012;0.000;0.000;2023-08-20T06:48:31;14.57;;;8.80;;
80647;SDS011;70012;0.000;0.000;2023-08-20T06:50:58;13.82;;;8.98;;
80647;SDS011;70012;0.000;0.000;2023-08-20T06:53:27;14.82;;;9.40;;
80647;SDS011;70012;0.000;0.000;2023-08-20T06:55:54;17.02;;;9.10;;
80647;SDS011;70012;0.000;0.000;2023-08-20T06:58:21;12.27;;;9.77;;
80647;SDS011;70012;0.000;0.000;2023-08-20T07:00:50;15.02;;;8.95;;
80647;SDS011;70012;0.000;0.000;2023-08-20T07:03:17;15.18;;;9.55;;
80647;SDS011;70012;0.000;0.000;2023-08-20T07:05:45;16.63;;;10.05;;
80647;SDS011;70012;0.000;0.000;2023-08-20T07:08:12;14.27;;;9.25;;
80647;SDS011;70012;0.000;0.000;2023-08-20T07:10:39;14.80;;;9.55;;
80647;SDS011;70012;0.000;0.000;2023-08-20T07:13:06;12.68;;;9.77;;
80647;SDS011;70012;0.000;0.000;2023-08-20T07:15:33;15.30;;;9.85;;
80647;SDS011;70012;0.000;0.000;2023-08-20T07:17:59;13.52;;;9.85;;
80647;SDS011;70012;0.000;0.000;2023-08-20T07:20:26;17.08;;;10.85;;
80647;SDS011;70012;0.000;0.000;2023-08-20T07:22:53;18.10;;;10.55;;
80647;SDS011;70012;0.000;0.000;2023-08-20T07:25:22;18.67;;;11.60;;
80647;SDS011;70012;0.000;0.000;2023-08-20T07:27:49;11.23;;;8.95;;
80647;SDS011;70012;0.000;0.000;2023-08-20T07:30:18;14.25;;;9.30;;
80647;SDS011;70012;0.000;0.000;2023-08-20T07:32:46;15.75;;;10.88;;
80647;SDS011;70012;0.000;0.000;2023-08-20T07:35:12;14.07;;;8.75;;
80647;SDS011;70012;0.000;0.000;2023-08-20T07:37:39;15.23;;;10.18;;
80647;SDS011;70012;0.000;0.000;2023-08-20T07:40:08;14.85;;;9.55;;
80647;SDS011;70012;0.000;0.000;2023-08-20T07:42:41;16.10;;;10.55;;
80647;SDS011;70012;0.000;0.000;2023-08-20T07:45:09;15.40;;;10.23;;
80647;SDS011;70012;0.000;0.000;2023-08-20T07:47:38;16.67;;;10.40;;
80647;SDS011;70012;0.000;0.000;2023-08-20T07:50:05;18.60;;;11.63;;
80647;SDS011;70012;0.000;0.000;2023-08-20T07:52:32;14.70;;;9.43;;
80647;SDS011;70012;0.000;0.000;2023-08-20T07:55:00;15.73;;;10.70;;
80647;SDS011;70012;0.000;0.000;2023-08-20T07:57:28;18.17;;;10.52;;
80647;SDS011;70012;0.000;0.000;2023-08-20T07:59:54;16.15;;;9.73;;
80647;SDS011;70012;0.000;0.000;2023-08-20T08:02:21;17.55;;;10.00;;
80647;SDS011;70012;0.000;0.000;2023-08-20T08:04:49;16.17;;;10.30;;
80647;SDS011;70012;0.000;0.000;2023-08-20T08:07:16;17.40;;;10.27;;
80647;SDS011;70012;0.000;0.000;2023-08-20T08:09:45;15.85;;;10.23;;
80647;SDS011;70012;0.000;0.000;2023-08-20T08:12:12;14.25;;;10.95;;
80647;SDS011;70012;0.000;0.000;2023-08-20T08:14:39;19.05;;;10.48;;
80647;SDS011;70012;0.000;0.000;2023-08-20T08:17:05;17.42;;;11.18;;
80647;SDS011;70012;0.000;0.000;2023-08-20T08:19:33;13.38;;;10.40;;
80647;SDS011;70012;0.000;0.000;2023-08-20T08:22:00;12.50;;;9.10;;
80647;SDS011;70012;0.000;0.000;2023-08-20T08:24:27;14.45;;;9.07;;
80647;SDS011;70012;0.000;0.000;2023-08-20T08:26:54;15.30;;;9.15;;
80647;SDS011;70012;0.000;0.000;2023-08-20T08:29:22;12.45;;;8.77;;
80647;SDS011;70012;0.000;0.000;2023-08-20T08:31:48;11.73;;;9.13;;
80647;SDS011;70012;0.000;0.000;2023-08-20T08:34:15;12.82;;;9.18;;
80647;SDS011;70012;0.000;0.000;2023-08-20T08:36:42;20.10;;;10.02;;
80647;SDS011;70012;0.000;0.000;2023-08-20T08:39:08;11.57;;;8.38;;
80647;SDS011;70012;0.000;0.000;2023-08-20T08:41:38;10.88;;;7.95;;
80647;SDS011;70012;0.000;0.000;2023-08-20T08:44:06;10.10;;;7.90;;
80647;SDS011;70012;0.000;0.000;2023-08-20T08:46:35;11.07;;;8.68;;
80647;SDS011;70012;0.000;0.000;2023-08-20T08:49:03;11.63;;;8.48;;
80647;SDS011;70012;0.000;0.000;2023-08-20T08:51:30;10.98;;;7.78;;
80647;SDS011;70012;0.000;0.000;2023-08-20T08:53:59;13.32;;;8.70;;
80647;SDS011;70012;0.000;0.000;2023-08-20T08:56:28;10.77;;;7.50;;
80647;SDS011;70012;0.000;0.000;2023-08-20T08:58:55;9.43;;;7.18;;
80647;SDS011;70012;0.000;0.000;2023-08-20T09:01:21;17.27;;;11.52;;
80647;SDS011;70012;0.000;0.000;2023-08-20T09:03:48;11.55;;;9.15;;
80647;SDS011;70012;0.000;0.000;2023-08-20T09:06:15;9.18;;;7.55;;
80647;SDS011;70012;0.000;0.000;2023-08-20T09:08:42;13.40;;;8.35;;
80647;SDS011;70012;0.000;0.000;2023-08-20T09:11:09;12.40;;;10.02;;
80647;SDS011;70012;0.000;0.000;2023-08-20T09:13:36;13.82;;;10.07;;
80647;SDS011;70012;0.000;0.000;2023-08-20T09:16:08;13.52;;;9.13;;
80647;SDS011;70012;0.000;0.000;2023-08-20T09:18:38;12.77;;;9.50;;
80647;SDS011;70012;0.000;0.000;2023-08-20T09:21:11;15.95;;;10.38;;
80647;SDS011;70012;0.000;0.000;2023-08-20T09:23:39;11.82;;;9.75;;
80647;SDS011;70012;0.000;0.000;2023-08-20T09:26:07;10.65;;;8.25;;
80647;SDS011;70012;0.000;0.000;2023-08-20T09:28:43;10.95;;;7.53;;
80647;SDS011;70012;0.000;0.000;2023-08-20T09:31:12;12.77;;;7.97;;
80647;SDS011;70012;0.000;0.000;2023-08-20T09:33:52;11.85;;;8.35;;
80647;SDS011;70012;0.000;0.000;2023-08-20T09:36:39;10.00;;;6.97;;
80647;SDS011;70012;0.000;0.000;2023-08-20T09:39:05;12.02;;;7.15;;
80647;SDS011;70012;0.000;0.000;2023-08-20T09:41:32;9.95;;;7.28;;
80647;SDS011;70012;0.000;0.000;2023-08-20T09:44:02;13.50;;;9.93;;
80647;SDS011;70012;0.000;0.000;2023-08-20T09:46:31;11.77;;;8.50;;
80647;SDS011;70012;0.000;0.000;2023-08-20T09:49:00;11.35;;;8.30;;
80647;SDS011;70012;0.000;0.000;2023-08-20T09:51:28;10.68;;;8.55;;
80647;SDS011;70012;0.000;0.000;2023-08-20T09:54:10;10.35;;;8.05;;
80647;SDS011;70012;0.000;0.000;2023-08-20T09:56:51;10.35;;;7.65;;
80647;SDS011;70012;0.000;0.000;2023-08-20T09:59:21;9.60;;;7.72;;
80647;SDS011;70012;0.000;0.000;2023-08-20T10:01:49;10.48;;;7.43;;
80647;SDS011;70012;0.000;0.000;2023-08-20T10:04:17;9.05;;;7.22;;
80647;SDS011;70012;0.000;0.000;2023-08-20T10:06:46;10.38;;;8.38;;
80647;SDS011;70012;0.000;0.000;2023-08-20T10:09:16;11.18;;;7.22;;
80647;SDS011;70012;0.000;0.000;2023-08-20T10:11:45;11.52;;;8.50;;
80647;SDS011;70012;0.000;0.000;2023-08-20T10:14:12;13.05;;;9.52;;
80647;SDS011;70012;0.000;0.000;2023-08-20T10:16:39;10.75;;;9.00;;
80647;SDS011;70012;0.000;0.000;2023-08-20T10:19:06;11.35;;;9.00;;
80647;SDS011;70012;0.000;0.000;2023-08-20T10:21:34;10.90;;;8.48;;
80647;SDS011;70012;0.000;0.000;2023-08-20T10:24:05;10.25;;;8.75;;
80647;SDS011;70012;0.000;0.000;2023-08-20T10:26:35;11.50;;;8.27;;
80647;SDS011;70012;0.000;0.000;2023-08-20T10:32:09;8.68;;;7.20;;
80647;SDS011;70012;0.000;0.000;2023-08-20T10:34:37;10.93;;;7.63;;
80647;SDS011;70012;0.000;0.000;2023-08-20T10:37:12;9.57;;;7.32;;
80647;SDS011;70012;0.000;0.000;2023-08-20T10:39:40;8.55;;;7.65;;
80647;SDS011;70012;0.000;0.000;2023-08-20T10:42:09;9.32;;;7.82;;
80647;SDS011;70012;0.000;0.000;2023-08-20T10:45:16;13.43;;;7.97;;
80647;SDS011;70012;0.000;0.000;2023-08-20T10:47:42;10.65;;;8.77;;
80647;SDS011;70012;0.000;0.000;2023-08-20T10:50:15;10.32;;;8.27;;
80647;SDS011;70012;0.000;0.000;2023-08-20T10:52:55;9.57;;;8.10;;
80647;SDS011;70012;0.000;0.000;2023-08-20T10:55:22;11.10;;;8.70;;
80647;SDS011;70012;0.000;0.000;2023-08-20T10:57:59;10.40;;;8.55;;
80647;SDS011;70012;0.000;0.000;2023-08-20T11:00:28;12.40;;;8.55;;
80647;SDS011;70012;0.000;0.000;2023-08-20T11:02:56;10.10;;;8.90;;
80647;SDS011;70012;0.000;0.000;2023-08-20T11:05:25;11.30;;;9.05;;
80647;SDS011;70012;0.000;0.000;2023-08-20T11:07:52;9.55;;;8.55;;
80647;SDS011;70012;0.000;0.000;2023-08-20T11:10:19;10.35;;;8.25;;
80647;SDS011;70012;0.000;0.000;2023-08-20T11:12:47;9.20;;;8.25;;
80647;SDS011;70012;0.000;0.000;2023-08-20T11:15:14;9.60;;;8.63;;
80647;SDS011;70012;0.000;0.000;2023-08-20T11:17:49;15.25;;;9.07;;
80647;SDS011;70012;0.000;0.000;2023-08-20T11:20:17;11.00;;;8.73;;
80647;SDS011;70012;0.000;0.000;2023-08-20T11:22:44;9.93;;;8.80;;
80647;SDS011;70012;0.000;0.000;2023-08-20T11:25:11;9.45;;;8.43;;
80647;SDS011;70012;0.000;0.000;2023-08-20T11:27:41;10.07;;;8.18;;
80647;SDS011;70012;0.000;0.000;2023-08-20T11:30:11;9.65;;;8.63;;
80647;SDS011;70012;0.000;0.000;2023-08-20T11:32:40;14.13;;;10.25;;
80647;SDS011;70012;0.000;0.000;2023-08-20T11:35:07;10.23;;;9.15;;
80647;SDS011;70012;0.000;0.000;2023-08-20T11:37:34;9.77;;;8.57;;
80647;SDS011;70012;0.000;0.000;2023-08-20T11:40:02;10.32;;;9.20;;
80647;SDS011;70012;0.000;0.000;2023-08-20T11:42:29;11.20;;;9.43;;
80647;SDS011;70012;0.000;0.000;2023-08-20T11:44:56;10.63;;;8.80;;
80647;SDS011;70012;0.000;0.000;2023-08-20T11:47:24;9.52;;;8.35;;
80647;SDS011;70012;0.000;0.000;2023-08-20T11:50:12;10.73;;;9.43;;
80647;SDS011;70012;0.000;0.000;2023-08-20T11:52:38;10.07;;;8.57;;
80647;SDS011;70012;0.000;0.000;2023-08-20T11:55:08;10.82;;;7.70;;
80647;SDS011;70012;0.000;0.000;2023-08-20T11:57:35;7.47;;;6.75;;
80647;SDS011;70012;0.000;0.000;2023-08-20T12:00:03;10.38;;;7.72;;
80647;SDS011;70012;0.000;0.000;2023-08-20T12:02:31;9.23;;;8.20;;
80647;SDS011;70012;0.000;0.000;2023-08-20T12:05:05;9.75;;;7.75;;
80647;SDS011;70012;0.000;0.000;2023-08-20T12:07:33;9.98;;;8.43;;
80647;SDS011;70012;0.000;0.000;2023-08-20T12:10:08;9.65;;;8.65;;
80647;SDS011;70012;0.000;0.000;2023-08-20T12:12:45;10.73;;;9.55;;
80647;SDS011;70012;0.000;0.000;2023-08-20T12:15:14;11.55;;;9.00;;
80647;SDS011;70012;0.000;0.000;2023-08-20T12:17:43;9.73;;;8.73;;
80647;SDS011;70012;0.000;0.000;2023-08-20T12:20:10;9.98;;;9.07;;
80647;SDS011;70012;0.000;0.000;2023-08-20T12:22:39;10.18;;;8.90;;
80647;SDS011;70012;0.000;0.000;2023-08-20T12:25:06;9.20;;;8.40;;
80647;SDS011;70012;0.000;0.000;2023-08-20T12:27:33;9.40;;;8.48;;
80647;SDS011;70012;0.000;0.000;2023-08-20T12:30:01;10.23;;;8.60;;
80647;SDS011;70012;0.000;0.000;2023-08-20T12:32:27;9.32;;;8.50;;
80647;SDS011;70012;0.000;0.000;2023-08-20T12:34:54;10.02;;;8.35;;
80647;SDS011;70012;0.000;0.000;2023-08-20T12:37:21;9.57;;;8.68;;
80647;SDS011;70012;0.000;0.000;2023-08-20T12:39:48;9.75;;;8.30;;
80647;SDS011;70012;0.000;0.000;2023-08-20T12:42:15;8.65;;;7.78;;
80647;SDS011;70012;0.000;0.000;2023-08-20T12:44:42;8.93;;;8.02;;
80647;SDS011;70012;0.000;0.000;2023-08-20T12:47:14;9.77;;;8.57;;
80647;SDS011;70012;0.000;0.000;2023-08-20T12:49:41;11.07;;;8.00;;
80647;SDS011;70012;0.000;0.000;2023-08-20T12:52:09;11.60;;;8.48;;
80647;SDS011;70012;0.000;0.000;2023-08-20T12:54:36;8.40;;;7.45;;
80647;SDS011;70012;0.000;0.000;2023-08-20T12:57:03;9.88;;;7.22;;
80647;SDS011;70012;0.000;0.000;2023-08-20T12:59:29;9.82;;;7.82;;
80647;SDS011;70012;0.000;0.000;2023-08-20T13:01:56;10.00;;;8.35;;
80647;SDS011;70012;0.000;0.000;2023-08-20T13:04:24;8.98;;;7.68;;
80647;SDS011;70012;0.000;0.000;2023-08-20T13:06:51;10.15;;;7.38;;
80647;SDS011;70012;0.000;0.000;2023-08-20T13:09:18;9.45;;;7.47;;
80647;SDS011;70012;0.000;0.000;2023-08-20T13:11:45;8.15;;;7.00;;
80647;SDS011;70012;0.000;0.000;2023-08-20T13:14:13;11.63;;;8.43;;
80647;SDS011;70012;0.000;0.000;2023-08-20T13:16:42;8.50;;;7.40;;
80647;SDS011;70012;0.000;0.000;2023-08-20T13:19:09;9.20;;;7.13;;
80647;SDS011;70012;0.000;0.000;2023-08-20T13:21:35;8.63;;;7.38;;
80647;SDS011;70012;0.000;0.000;2023-08-20T13:24:02;11.00;;;7.75;;
80647;SDS011;70012;0.000;0.000;2023-08-20T13:26:29;8.40;;;7.05;;
80647;SDS011;70012;0.000;0.000;2023-08-20T13:28:56;9.38;;;7.28;;
80647;SDS011;70012;0.000;0.000;2023-08-20T13:31:23;8.88;;;6.88;;
80647;SDS011;70012;0.000;0.000;2023-08-20T13:33:50;10.05;;;6.72;;
80647;SDS011;70012;0.000;0.000;2023-08-20T13:36:17;7.45;;;6.65;;
80647;SDS011;70012;0.000;0.000;2023-08-20T13:38:43;8.70;;;6.72;;
80647;SDS011;70012;0.000;0.000;2023-08-20T13:41:10;7.22;;;6.35;;
80647;SDS011;70012;0.000;0.000;2023-08-20T13:43:37;7.28;;;5.90;;
80647;SDS011;70012;0.000;0.000;2023-08-20T13:46:03;7.80;;;6.45;;
80647;SDS011;70012;0.000;0.000;2023-08-20T13:48:30;7.32;;;6.43;;
80647;SDS011;70012;0.000;0.000;2023-08-20T13:50:57;7.65;;;6.85;;
80647;SDS011;70012;0.000;0.000;2023-08-20T13:53:24;6.80;;;5.75;;
80647;SDS011;70012;0.000;0.000;2023-08-20T13:55:51;12.60;;;6.55;;
80647;SDS011;70012;0.000;0.000;2023-08-20T13:58:18;7.50;;;6.43;;
80647;SDS011;70012;0.000;0.000;2023-08-20T14:00:44;7.82;;;6.50;;
80647;SDS011;70012;0.000;0.000;2023-08-20T14:03:11;6.60;;;5.90;;
80647;SDS011;70012;0.000;0.000;2023-08-20T14:05:38;6.97;;;5.82;;
80647;SDS011;70012;0.000;0.000;2023-08-20T14:08:05;8.43;;;6.72;;
80647;SDS011;70012;0.000;0.000;2023-08-20T14:10:32;7.82;;;5.85;;
80647;SDS011;70012;0.000;0.000;2023-08-20T14:12:58;7.70;;;5.95;;
80647;SDS011;70012;0.000;0.000;2023-08-20T14:15:25;8.88;;;6.15;;
80647;SDS011;70012;0.000;0.000;2023-08-20T14:17:52;8.85;;;6.75;;
80647;SDS011;70012;0.000;0.000;2023-08-20T14:20:18;7.03;;;5.50;;
80647;SDS011;70012;0.000;0.000;2023-08-20T14:22:45;6.70;;;5.57;;
80647;SDS011;70012;0.000;0.000;2023-08-20T14:25:12;8.55;;;6.13;;
80647;SDS011;70012;0.000;0.000;2023-08-20T14:27:39;6.68;;;5.72;;
80647;SDS011;70012;0.000;0.000;2023-08-20T14:30:06;7.75;;;5.55;;
80647;SDS011;70012;0.000;0.000;2023-08-20T14:32:35;8.65;;;5.80;;
80647;SDS011;70012;0.000;0.000;2023-08-20T14:35:05;6.13;;;5.35;;
80647;SDS011;70012;0.000;0.000;2023-08-20T14:37:32;7.10;;;5.65;;
80647;SDS011;70012;0.000;0.000;2023-08-20T14:39:59;8.55;;;5.82;;
80647;SDS011;70012;0.000;0.000;2023-08-20T14:42:25;7.50;;;5.50;;
80647;SDS011;70012;0.000;0.000;2023-08-20T14:44:52;6.85;;;5.55;;
80647;SDS011;70012;0.000;0.000;2023-08-20T14:47:20;7.60;;;5.72;;
80647;SDS011;70012;0.000;0.000;2023-08-20T14:49:46;6.75;;;5.82;;
80647;SDS011;70012;0.000;0.000;2023-08-20T14:52:13;8.25;;;5.55;;
80647;SDS011;70012;0.000;0.000;2023-08-20T14:57:13;7.20;;;5.63;;
80647;SDS011;70012;0.000;0.000;2023-08-20T14:59:41;6.93;;;4.88;;
80647;SDS011;70012;0.000;0.000;2023-08-20T15:02:08;8.02;;;5.45;;
80647;SDS011;70012;0.000;0.000;2023-08-20T15:04:35;7.68;;;6.00;;
80647;SDS011;70012;0.000;0.000;2023-08-20T15:07:02;7.93;;;6.20;;
80647;SDS011;70012;0.000;0.000;2023-08-20T15:09:29;6.75;;;5.38;;
80647;SDS011;70012;0.000;0.000;2023-08-20T15:11:56;6.95;;;5.53;;
80647;SDS011;70012;0.000;0.000;2023-08-20T15:14:23;7.25;;;5.60;;